createdAt,value
2018-05-23T00:00:30.786Z,18.31
2018-05-23T00:01:30.809Z,18.35
2018-05-23T00:02:30.832Z,18.40
2018-05-23T00:03:30.855Z,18.31
2018-05-23T00:04:30.878Z,18.31
2018-05-23T00:05:30.902Z,18.34
2018-05-23T00:06:30.929Z,18.40
2018-05-23T00:07:30.950Z,18.38
2018-05-23T00:08:30.972Z,18.37
2018-05-23T00:09:30.994Z,18.37
2018-05-23T00:10:31.018Z,18.31
2018-05-23T00:11:31.041Z,18.28
2018-05-23T00:12:31.067Z,18.33
2018-05-23T00:13:31.088Z,18.29
2018-05-23T00:14:31.111Z,18.31
2018-05-23T00:15:31.134Z,18.40
2018-05-23T00:16:31.158Z,18.38
2018-05-23T00:17:31.180Z,18.31
2018-05-23T00:18:31.204Z,18.41
2018-05-23T00:19:31.227Z,18.31
2018-05-23T00:20:31.254Z,18.37
2018-05-23T00:21:31.273Z,18.40
2018-05-23T00:22:31.297Z,18.38
2018-05-23T00:23:31.319Z,18.41
2018-05-23T00:24:31.343Z,18.40
2018-05-23T00:25:31.368Z,18.33
2018-05-23T00:26:31.390Z,18.38
2018-05-23T00:27:31.414Z,18.37
2018-05-23T00:28:31.436Z,18.37
2018-05-23T00:29:31.459Z,18.37
2018-05-23T00:30:31.483Z,18.34
2018-05-23T00:31:31.505Z,18.31
2018-05-23T00:32:31.538Z,18.37
2018-05-23T00:33:31.555Z,18.31
2018-05-23T00:34:31.578Z,18.34
2018-05-23T00:35:31.600Z,18.38
2018-05-23T00:36:31.622Z,18.31
2018-05-23T00:37:31.645Z,18.38
2018-05-23T00:38:31.668Z,18.33
2018-05-23T00:39:31.695Z,18.40
2018-05-23T00:40:31.714Z,18.35
2018-05-23T00:41:31.738Z,18.34
2018-05-23T00:42:31.761Z,18.22
2018-05-23T00:43:31.784Z,18.19
2018-05-23T00:44:31.807Z,18.16
2018-05-23T00:45:31.830Z,18.08
2018-05-23T00:46:31.854Z,18.13
2018-05-23T00:47:31.877Z,18.13
2018-05-23T00:48:31.899Z,18.16
2018-05-23T00:49:31.923Z,18.20
2018-05-23T00:50:31.947Z,18.16
2018-05-23T00:51:31.969Z,18.18
2018-05-23T00:52:31.994Z,18.15
2018-05-23T00:53:32.016Z,18.15
2018-05-23T00:54:32.042Z,18.13
2018-05-23T00:55:32.062Z,18.15
2018-05-23T00:56:32.085Z,18.13
2018-05-23T00:57:32.108Z,18.11
2018-05-23T00:58:32.132Z,18.18
2018-05-23T00:59:32.153Z,18.15
2018-05-23T01:00:32.179Z,18.10
2018-05-23T01:01:32.201Z,18.11
2018-05-23T01:02:32.224Z,18.15
2018-05-23T01:03:32.246Z,18.18
2018-05-23T01:04:32.271Z,18.15
2018-05-23T01:05:32.297Z,18.11
2018-05-23T01:06:32.317Z,18.11
2018-05-23T01:07:32.339Z,18.11
2018-05-23T01:08:32.362Z,18.13
2018-05-23T01:09:32.385Z,18.08
2018-05-23T01:10:32.410Z,18.11
2018-05-23T01:11:32.431Z,18.10
2018-05-23T01:12:32.455Z,18.15
2018-05-23T01:13:32.477Z,18.18
2018-05-23T01:14:32.502Z,18.04
2018-05-23T01:15:32.526Z,18.04
2018-05-23T01:16:32.547Z,18.03
2018-05-23T01:17:32.571Z,18.08
2018-05-23T01:18:32.594Z,18.01
2018-05-23T01:19:32.616Z,18.01
2018-05-23T01:20:32.639Z,18.00
2018-05-23T01:21:32.663Z,18.05
2018-05-23T01:22:32.685Z,18.01
2018-05-23T01:23:32.708Z,18.11
2018-05-23T01:24:32.731Z,18.08
2018-05-23T01:25:32.754Z,18.11
2018-05-23T01:26:32.776Z,18.07
2018-05-23T01:27:32.799Z,17.92
2018-05-23T01:28:32.823Z,17.97
2018-05-23T01:29:32.845Z,18.08
2018-05-23T01:30:32.871Z,18.11
2018-05-23T01:31:32.900Z,18.11
2018-05-23T01:32:32.914Z,18.04
2018-05-23T01:33:32.938Z,18.04
2018-05-23T01:34:32.960Z,18.05
2018-05-23T01:35:32.983Z,18.13
2018-05-23T01:36:33.007Z,18.11
2018-05-23T01:37:33.029Z,18.13
2018-05-23T01:38:33.052Z,18.10
2018-05-23T01:39:33.076Z,18.15
2018-05-23T01:40:33.098Z,18.20
2018-05-23T01:41:33.122Z,18.11
2018-05-23T01:42:33.145Z,18.16
2018-05-23T01:43:33.169Z,18.10
2018-05-23T01:44:33.190Z,18.05
2018-05-23T01:45:33.213Z,18.00
2018-05-23T01:46:33.236Z,17.95
2018-05-23T01:47:33.258Z,17.97
2018-05-23T01:48:33.281Z,18.05
2018-05-23T01:49:33.305Z,17.98
2018-05-23T01:50:33.329Z,18.13
2018-05-23T01:51:33.351Z,18.04
2018-05-23T01:52:33.375Z,17.97
2018-05-23T01:53:33.397Z,18.10
2018-05-23T01:54:33.421Z,18.07
2018-05-23T01:55:33.442Z,18.03
2018-05-23T01:56:33.468Z,18.10
2018-05-23T01:57:33.490Z,18.07
2018-05-23T01:58:33.515Z,18.08
2018-05-23T01:59:33.535Z,18.08
2018-05-23T02:00:33.558Z,18.04
2018-05-23T02:01:33.581Z,18.07
2018-05-23T02:02:33.604Z,18.13
2018-05-23T02:03:33.628Z,18.07
2018-05-23T02:04:33.650Z,18.07
2018-05-23T02:05:33.675Z,18.08
2018-05-23T02:06:33.696Z,18.04
2018-05-23T02:07:33.719Z,18.15
2018-05-23T02:08:33.744Z,18.07
2018-05-23T02:09:33.766Z,18.13
2018-05-23T02:10:33.796Z,18.08
2018-05-23T02:11:33.811Z,18.10
2018-05-23T02:12:33.835Z,18.04
2018-05-23T02:13:33.907Z,18.00
2018-05-23T02:14:33.880Z,17.95
2018-05-23T02:15:33.903Z,18.08
2018-05-23T02:16:33.926Z,18.04
2018-05-23T02:17:33.949Z,18.10
2018-05-23T02:18:33.972Z,18.04
2018-05-23T02:19:33.995Z,18.00
2018-05-23T02:20:34.020Z,18.07
2018-05-23T02:21:34.041Z,18.04
2018-05-23T02:22:34.065Z,18.03
2018-05-23T02:23:34.086Z,18.03
2018-05-23T02:24:34.110Z,17.90
2018-05-23T02:25:34.132Z,17.94
2018-05-23T02:26:34.157Z,17.94
2018-05-23T02:27:34.178Z,17.90
2018-05-23T02:28:34.202Z,17.87
2018-05-23T02:29:34.228Z,18.00
2018-05-23T02:30:34.259Z,17.98
2018-05-23T02:31:34.270Z,18.01
2018-05-23T02:32:34.294Z,18.04
2018-05-23T02:33:34.317Z,17.90
2018-05-23T02:34:34.341Z,17.97
2018-05-23T02:35:34.362Z,17.90
2018-05-23T02:36:34.387Z,17.97
2018-05-23T02:37:34.416Z,17.87
2018-05-23T02:38:34.432Z,18.00
2018-05-23T02:39:34.460Z,17.95
2018-05-23T02:40:34.477Z,17.89
2018-05-23T02:41:34.509Z,17.90
2018-05-23T02:42:34.523Z,17.90
2018-05-23T02:43:34.547Z,17.95
2018-05-23T02:44:34.569Z,17.92
2018-05-23T02:45:34.592Z,17.90
2018-05-23T02:46:34.616Z,17.83
2018-05-23T02:47:34.637Z,17.89
2018-05-23T02:48:34.662Z,17.90
2018-05-23T02:49:34.684Z,17.86
2018-05-23T02:50:34.707Z,17.85
2018-05-23T02:51:34.833Z,17.86
2018-05-23T02:52:34.753Z,17.85
2018-05-23T02:53:34.777Z,17.89
2018-05-23T02:54:34.799Z,17.86
2018-05-23T02:55:34.821Z,17.87
2018-05-23T02:56:34.845Z,17.87
2018-05-23T02:57:34.917Z,17.89
2018-05-23T02:58:34.892Z,17.85
2018-05-23T02:59:34.912Z,17.86
2018-05-23T03:00:34.936Z,17.86
2018-05-23T03:01:34.963Z,17.74
2018-05-23T03:02:34.982Z,17.72
2018-05-23T03:03:35.005Z,17.80
2018-05-23T03:04:35.028Z,17.78
2018-05-23T03:05:35.052Z,17.78
2018-05-23T03:06:35.074Z,17.76
2018-05-23T03:07:35.098Z,17.79
2018-05-23T03:08:35.119Z,17.82
2018-05-23T03:09:35.146Z,17.80
2018-05-23T03:10:35.167Z,17.85
2018-05-23T03:11:35.187Z,17.83
2018-05-23T03:12:35.216Z,17.85
2018-05-23T03:13:35.239Z,17.85
2018-05-23T03:14:35.257Z,17.86
2018-05-23T03:15:35.281Z,17.83
2018-05-23T03:16:35.303Z,17.76
2018-05-23T03:17:35.326Z,17.79
2018-05-23T03:18:35.349Z,17.78
2018-05-23T03:19:35.371Z,17.74
2018-05-23T03:20:35.394Z,17.79
2018-05-23T03:21:35.417Z,17.83
2018-05-23T03:22:35.440Z,17.82
2018-05-23T03:23:35.463Z,17.86
2018-05-23T03:24:35.488Z,17.83
2018-05-23T03:25:35.510Z,17.72
2018-05-23T03:26:35.533Z,17.72
2018-05-23T03:27:35.554Z,17.72
2018-05-23T03:28:35.580Z,17.74
2018-05-23T03:29:35.651Z,17.74
2018-05-23T03:30:35.624Z,17.82
2018-05-23T03:31:35.646Z,17.76
2018-05-23T03:32:35.673Z,17.74
2018-05-23T03:33:35.693Z,17.70
2018-05-23T03:34:35.715Z,17.76
2018-05-23T03:35:35.738Z,17.79
2018-05-23T03:36:35.760Z,17.87
2018-05-23T03:37:35.783Z,17.92
2018-05-23T03:38:35.806Z,17.83
2018-05-23T03:39:35.828Z,17.80
2018-05-23T03:40:35.858Z,17.87
2018-05-23T03:41:35.875Z,17.85
2018-05-23T03:42:35.899Z,17.89
2018-05-23T03:43:35.990Z,17.83
2018-05-23T03:44:35.945Z,17.89
2018-05-23T03:45:35.966Z,17.86
2018-05-23T03:46:35.991Z,17.79
2018-05-23T03:47:36.012Z,17.76
2018-05-23T03:48:36.035Z,17.71
2018-05-23T03:49:36.058Z,17.74
2018-05-23T03:50:36.082Z,17.74
2018-05-23T03:51:36.104Z,17.74
2018-05-23T03:52:36.127Z,17.71
2018-05-23T03:53:36.149Z,17.79
2018-05-23T03:54:36.172Z,17.64
2018-05-23T03:55:36.194Z,17.72
2018-05-23T03:56:36.217Z,17.74
2018-05-23T03:57:36.240Z,17.72
2018-05-23T03:58:36.262Z,17.71
2018-05-23T03:59:36.285Z,17.68
2018-05-23T04:00:36.310Z,17.67
2018-05-23T04:01:36.332Z,17.74
2018-05-23T04:02:36.355Z,17.74
2018-05-23T04:03:36.376Z,17.74
2018-05-23T04:04:36.401Z,17.74
2018-05-23T04:05:36.422Z,17.76
2018-05-23T04:06:36.445Z,17.78
2018-05-23T04:07:36.467Z,17.79
2018-05-23T04:08:36.491Z,17.76
2018-05-23T04:09:36.596Z,17.78
2018-05-23T04:10:36.537Z,17.79
2018-05-23T04:11:36.559Z,17.80
2018-05-23T04:12:36.582Z,17.82
2018-05-23T04:13:36.656Z,17.86
2018-05-23T04:14:36.628Z,17.90
2018-05-23T04:15:36.649Z,17.92
2018-05-23T04:16:36.673Z,17.97
2018-05-23T04:17:36.715Z,17.94
2018-05-23T04:18:36.722Z,17.90
2018-05-23T04:19:36.743Z,17.92
2018-05-23T04:20:36.765Z,17.89
2018-05-23T04:21:36.788Z,17.86
2018-05-23T04:22:36.811Z,17.97
2018-05-23T04:23:36.835Z,17.92
2018-05-23T04:24:36.857Z,17.85
2018-05-23T04:25:36.880Z,17.90
2018-05-23T04:26:36.906Z,17.86
2018-05-23T04:27:36.925Z,17.74
2018-05-23T04:28:36.947Z,17.83
2018-05-23T04:29:36.971Z,17.94
2018-05-23T04:30:37.030Z,17.94
2018-05-23T04:31:37.020Z,18.04
2018-05-23T04:32:37.040Z,18.03
2018-05-23T04:33:37.063Z,17.86
2018-05-23T04:34:37.087Z,17.94
2018-05-23T04:35:37.109Z,18.00
2018-05-23T04:36:37.132Z,18.05
2018-05-23T04:37:37.155Z,18.07
2018-05-23T04:38:37.179Z,18.05
2018-05-23T04:39:37.201Z,18.08
2018-05-23T04:40:37.227Z,18.10
2018-05-23T04:41:37.247Z,18.03
2018-05-23T04:42:37.271Z,18.04
2018-05-23T04:43:37.293Z,18.10
2018-05-23T04:44:37.394Z,18.08
2018-05-23T04:45:37.342Z,17.95
2018-05-23T04:46:37.363Z,18.08
2018-05-23T04:47:37.384Z,18.10
2018-05-23T04:48:37.449Z,18.03
2018-05-23T04:49:37.432Z,18.08
2018-05-23T04:50:37.455Z,18.08
2018-05-23T04:51:37.477Z,18.16
2018-05-23T04:52:37.500Z,18.05
2018-05-23T04:53:37.524Z,18.16
2018-05-23T04:54:37.547Z,18.16
2018-05-23T04:55:37.572Z,18.07
2018-05-23T04:56:37.592Z,17.95
2018-05-23T04:57:37.615Z,17.97
2018-05-23T04:58:37.639Z,18.01
2018-05-23T04:59:37.662Z,18.01
2018-05-23T05:00:37.684Z,18.05
2018-05-23T05:01:37.709Z,18.04
2018-05-23T05:02:37.731Z,18.15
2018-05-23T05:03:37.754Z,18.23
2018-05-23T05:04:37.778Z,18.23
2018-05-23T05:05:37.801Z,18.23
2018-05-23T05:06:37.823Z,18.31
2018-05-23T05:07:37.845Z,18.34
2018-05-23T05:08:37.870Z,18.35
2018-05-23T05:09:37.894Z,18.43
2018-05-23T05:10:37.916Z,18.33
2018-05-23T05:11:37.938Z,18.50
2018-05-23T05:12:37.963Z,18.50
2018-05-23T05:13:38.042Z,18.58
2018-05-23T05:14:38.009Z,18.49
2018-05-23T05:15:38.031Z,18.52
2018-05-23T05:16:38.056Z,18.44
2018-05-23T05:17:38.079Z,18.47
2018-05-23T05:18:38.102Z,18.40
2018-05-23T05:19:38.124Z,18.41
2018-05-23T05:20:38.148Z,18.44
2018-05-23T05:21:38.171Z,18.43
2018-05-23T05:22:38.195Z,18.50
2018-05-23T05:23:38.217Z,18.52
2018-05-23T05:24:38.241Z,18.50
2018-05-23T05:25:38.264Z,18.50
2018-05-23T05:26:38.288Z,18.56
2018-05-23T05:27:38.311Z,18.55
2018-05-23T05:28:38.335Z,18.55
2018-05-23T05:29:38.361Z,18.60
2018-05-23T05:30:38.381Z,18.66
2018-05-23T05:31:38.405Z,18.75
2018-05-23T05:32:38.428Z,18.80
2018-05-23T05:33:38.451Z,18.73
2018-05-23T05:34:38.474Z,18.70
2018-05-23T05:35:38.500Z,18.73
2018-05-23T05:36:38.522Z,18.74
2018-05-23T05:37:38.545Z,18.77
2018-05-23T05:38:38.569Z,18.90
2018-05-23T05:39:38.592Z,18.88
2018-05-23T05:40:38.615Z,18.84
2018-05-23T05:41:38.639Z,18.93
2018-05-23T05:42:38.662Z,18.93
2018-05-23T05:43:38.686Z,18.89
2018-05-23T05:44:38.708Z,18.93
2018-05-23T05:45:38.733Z,19.07
2018-05-23T05:46:38.756Z,18.92
2018-05-23T05:47:38.783Z,18.93
2018-05-23T05:48:38.804Z,18.92
2018-05-23T05:49:38.832Z,19.11
2018-05-23T05:50:38.851Z,19.04
2018-05-23T05:51:38.874Z,19.07
2018-05-23T05:52:38.897Z,19.07
2018-05-23T05:53:39.028Z,19.18
2018-05-23T05:54:38.949Z,19.24
2018-05-23T05:55:38.968Z,19.26
2018-05-23T05:56:38.993Z,19.22
2018-05-23T05:57:39.016Z,19.15
2018-05-23T05:58:39.040Z,19.26
2018-05-23T05:59:39.064Z,19.27
2018-05-23T06:00:39.087Z,19.33
2018-05-23T06:01:39.112Z,19.39
2018-05-23T06:02:39.135Z,19.45
2018-05-23T06:03:39.159Z,19.39
2018-05-23T06:04:39.183Z,19.49
2018-05-23T06:05:39.208Z,19.48
2018-05-23T06:06:39.232Z,19.54
2018-05-23T06:07:39.254Z,19.52
2018-05-23T06:08:39.278Z,19.52
2018-05-23T06:09:39.399Z,19.62
2018-05-23T06:10:39.327Z,19.48
2018-05-23T06:11:39.351Z,19.48
2018-05-23T06:12:39.374Z,19.51
2018-05-23T06:13:39.399Z,19.54
2018-05-23T06:14:39.423Z,19.58
2018-05-23T06:15:39.447Z,19.66
2018-05-23T06:16:39.470Z,19.85
2018-05-23T06:17:39.495Z,19.82
2018-05-23T06:18:39.527Z,19.76
2018-05-23T06:19:39.549Z,19.62
2018-05-23T06:20:39.568Z,19.63
2018-05-23T06:21:39.592Z,19.63
2018-05-23T06:22:39.616Z,19.63
2018-05-23T06:23:39.644Z,19.67
2018-05-23T06:24:39.663Z,19.76
2018-05-23T06:25:39.691Z,19.76
2018-05-23T06:26:39.714Z,19.74
2018-05-23T06:27:39.737Z,19.82
2018-05-23T06:28:39.761Z,19.81
2018-05-23T06:29:39.786Z,19.85
2018-05-23T06:30:39.810Z,19.84
2018-05-23T06:31:39.833Z,19.91
2018-05-23T06:32:39.860Z,19.85
2018-05-23T06:33:39.883Z,19.88
2018-05-23T06:34:39.908Z,19.81
2018-05-23T06:35:39.931Z,19.70
2018-05-23T06:36:39.956Z,19.84
2018-05-23T06:37:39.993Z,19.79
2018-05-23T06:38:40.005Z,19.91
2018-05-23T06:39:40.029Z,19.99
2018-05-23T06:40:40.054Z,20.04
2018-05-23T06:41:40.080Z,19.92
2018-05-23T06:42:40.104Z,20.09
2018-05-23T06:43:40.228Z,20.10
2018-05-23T06:44:40.152Z,20.10
2018-05-23T06:45:40.227Z,20.13
2018-05-23T06:46:40.201Z,20.16
2018-05-23T06:47:40.228Z,20.21
2018-05-23T06:48:40.252Z,20.22
2018-05-23T06:49:40.276Z,20.14
2018-05-23T06:50:40.300Z,20.24
2018-05-23T06:51:40.325Z,20.31
2018-05-23T06:52:40.350Z,20.37
2018-05-23T06:53:40.374Z,20.36
2018-05-23T06:54:40.400Z,20.32
2018-05-23T06:55:40.520Z,20.22
2018-05-23T06:56:40.448Z,20.24
2018-05-23T06:57:40.473Z,20.21
2018-05-23T06:58:40.499Z,20.18
2018-05-23T06:59:40.524Z,19.95
2018-05-23T07:00:40.548Z,19.99
2018-05-23T07:01:40.573Z,19.91
2018-05-23T07:02:40.599Z,19.91
2018-05-23T07:03:40.622Z,20.09
2018-05-23T07:04:41.354Z,20.13
2018-05-23T07:05:40.720Z,20.24
2018-05-23T07:06:40.870Z,20.24
2018-05-23T07:07:40.721Z,20.25
2018-05-23T07:08:40.748Z,20.24
2018-05-23T07:09:40.771Z,20.36
2018-05-23T07:10:40.797Z,20.39
2018-05-23T07:11:40.821Z,20.37
2018-05-23T07:12:40.847Z,20.51
2018-05-23T07:13:40.875Z,20.63
2018-05-23T07:14:40.984Z,20.32
2018-05-23T07:15:40.922Z,20.32
2018-05-23T07:16:40.945Z,20.36
2018-05-23T07:17:40.970Z,20.39
2018-05-23T07:18:40.996Z,20.47
2018-05-23T07:19:41.021Z,20.32
2018-05-23T07:20:41.045Z,20.52
2018-05-23T07:21:41.071Z,20.70
2018-05-23T07:22:41.097Z,20.84
2018-05-23T07:23:41.120Z,20.67
2018-05-23T07:24:41.156Z,20.52
2018-05-23T07:25:41.171Z,20.65
2018-05-23T07:26:41.198Z,20.50
2018-05-23T07:27:41.222Z,20.52
2018-05-23T07:28:41.297Z,20.65
2018-05-23T07:29:41.272Z,20.77
2018-05-23T07:30:41.299Z,20.96
2018-05-23T07:31:41.416Z,21.05
2018-05-23T07:32:41.346Z,21.06
2018-05-23T07:33:41.373Z,20.95
2018-05-23T07:34:41.397Z,20.82
2018-05-23T07:35:41.422Z,20.87
2018-05-23T07:36:41.448Z,20.96
2018-05-23T07:37:41.483Z,21.07
2018-05-23T07:38:41.499Z,21.11
2018-05-23T07:39:41.523Z,21.07
2018-05-23T07:40:41.549Z,21.05
2018-05-23T07:41:41.574Z,21.06
2018-05-23T07:42:41.600Z,21.15
2018-05-23T07:43:41.624Z,21.15
2018-05-23T07:44:41.651Z,21.05
2018-05-23T07:45:41.675Z,21.12
2018-05-23T07:46:41.702Z,21.12
2018-05-23T07:47:41.727Z,21.33
2018-05-23T07:48:41.754Z,21.43
2018-05-23T07:49:41.777Z,21.55
2018-05-23T07:50:41.804Z,21.60
2018-05-23T07:51:41.831Z,21.50
2018-05-23T07:52:41.855Z,21.37
2018-05-23T07:53:41.881Z,21.51
2018-05-23T07:54:41.907Z,21.72
2018-05-23T07:55:41.932Z,21.69
2018-05-23T07:56:41.969Z,21.69
2018-05-23T07:57:41.983Z,21.73
2018-05-23T07:58:42.009Z,21.72
2018-05-23T07:59:42.038Z,21.88
2018-05-23T08:00:42.060Z,22.02
2018-05-23T08:01:42.088Z,22.15
2018-05-23T08:02:42.113Z,22.14
2018-05-23T08:03:42.139Z,22.35
2018-05-23T08:04:42.169Z,22.25
2018-05-23T08:05:42.190Z,21.99
2018-05-23T08:06:42.217Z,21.80
2018-05-23T08:07:42.242Z,21.89
2018-05-23T08:08:42.268Z,21.91
2018-05-23T08:09:42.296Z,22.18
2018-05-23T08:10:42.326Z,22.23
2018-05-23T08:11:42.347Z,22.29
2018-05-23T08:12:42.373Z,22.15
2018-05-23T08:13:42.400Z,22.32
2018-05-23T08:14:42.427Z,22.25
2018-05-23T08:15:42.451Z,22.43
2018-05-23T08:16:42.477Z,22.25
2018-05-23T08:17:42.504Z,22.29
2018-05-23T08:18:42.681Z,22.32
2018-05-23T08:19:42.564Z,22.32
2018-05-23T08:20:42.583Z,22.35
2018-05-23T08:21:42.609Z,22.47
2018-05-23T08:22:42.636Z,22.48
2018-05-23T08:23:42.661Z,22.57
2018-05-23T08:24:42.690Z,22.63
2018-05-23T08:25:42.714Z,22.68
2018-05-23T08:26:42.741Z,22.50
2018-05-23T08:27:42.766Z,22.39
2018-05-23T08:28:42.797Z,22.30
2018-05-23T08:29:42.883Z,22.38
2018-05-23T08:30:42.851Z,22.65
2018-05-23T08:31:42.872Z,22.68
2018-05-23T08:32:42.898Z,22.60
2018-05-23T08:33:42.926Z,22.69
2018-05-23T08:34:42.953Z,22.87
2018-05-23T08:35:42.978Z,22.94
2018-05-23T08:36:43.004Z,23.02
2018-05-23T08:37:43.031Z,23.10
2018-05-23T08:38:43.059Z,23.10
2018-05-23T08:39:43.085Z,23.08
2018-05-23T08:40:43.110Z,23.18
2018-05-23T08:41:43.137Z,23.06
2018-05-23T08:42:43.164Z,22.93
2018-05-23T08:43:43.190Z,22.87
2018-05-23T08:44:43.218Z,22.90
2018-05-23T08:45:43.243Z,22.96
2018-05-23T08:46:43.271Z,23.02
2018-05-23T08:47:43.298Z,23.12
2018-05-23T08:48:43.326Z,23.10
2018-05-23T08:49:43.350Z,23.34
2018-05-23T08:50:43.378Z,23.18
2018-05-23T08:51:43.403Z,23.36
2018-05-23T08:52:43.430Z,23.36
2018-05-23T08:53:43.457Z,23.37
2018-05-23T08:54:43.484Z,23.37
2018-05-23T08:55:43.510Z,23.32
2018-05-23T08:56:43.537Z,23.15
2018-05-23T08:57:43.565Z,23.21
2018-05-23T08:58:43.594Z,23.32
2018-05-23T08:59:43.618Z,23.21
2018-05-23T09:00:43.845Z,23.24
2018-05-23T09:01:43.676Z,23.34
2018-05-23T09:02:43.701Z,23.23
2018-05-23T09:03:43.727Z,23.17
2018-05-23T09:04:43.798Z,23.20
2018-05-23T09:05:43.781Z,23.10
2018-05-23T09:06:43.808Z,23.03
2018-05-23T09:07:43.934Z,23.08
2018-05-23T09:08:43.861Z,23.05
2018-05-23T09:09:43.888Z,23.05
2018-05-23T09:10:43.915Z,23.21
2018-05-23T09:11:43.941Z,23.02
2018-05-23T09:12:43.969Z,23.06
2018-05-23T09:13:43.995Z,23.06
2018-05-23T09:14:44.027Z,23.08
2018-05-23T09:15:44.049Z,23.05
2018-05-23T09:16:44.076Z,23.09
2018-05-23T09:17:44.103Z,23.06
2018-05-23T09:18:44.136Z,23.20
2018-05-23T09:19:44.157Z,23.17
2018-05-23T09:20:44.183Z,23.43
2018-05-23T09:21:44.210Z,23.50
2018-05-23T09:22:44.238Z,23.25
2018-05-23T09:23:44.264Z,23.12
2018-05-23T09:24:44.291Z,23.36
2018-05-23T09:25:44.319Z,23.43
2018-05-23T09:26:44.347Z,23.44
2018-05-23T09:27:44.372Z,23.58
2018-05-23T09:28:44.406Z,23.62
2018-05-23T09:29:44.426Z,23.65
2018-05-23T09:30:44.654Z,23.76
2018-05-23T09:31:44.481Z,23.86
2018-05-23T09:32:44.509Z,24.06
2018-05-23T09:33:44.539Z,24.28
2018-05-23T09:34:44.563Z,24.20
2018-05-23T09:35:44.594Z,24.17
2018-05-23T09:36:44.616Z,24.13
2018-05-23T09:37:44.644Z,23.98
2018-05-23T09:38:44.672Z,24.06
2018-05-23T09:39:44.697Z,24.18
2018-05-23T09:40:44.726Z,24.33
2018-05-23T09:41:44.753Z,24.39
2018-05-23T09:42:44.780Z,24.40
2018-05-23T09:43:44.808Z,24.28
2018-05-23T09:44:44.839Z,23.95
2018-05-23T09:45:44.864Z,23.95
2018-05-23T09:46:44.891Z,24.05
2018-05-23T09:47:44.919Z,24.28
2018-05-23T09:48:44.947Z,24.18
2018-05-23T09:49:44.975Z,24.05
2018-05-23T09:50:45.053Z,24.28
2018-05-23T09:51:45.030Z,24.30
2018-05-23T09:52:45.058Z,24.33
2018-05-23T09:53:45.086Z,24.36
2018-05-23T09:54:45.113Z,24.33
2018-05-23T09:55:45.139Z,24.06
2018-05-23T09:56:45.169Z,23.96
2018-05-23T09:57:45.196Z,24.03
2018-05-23T09:58:45.224Z,24.06
2018-05-23T09:59:45.251Z,24.23
2018-05-23T10:00:45.279Z,24.05
2018-05-23T10:01:45.306Z,24.21
2018-05-23T10:02:45.333Z,24.33
2018-05-23T10:03:45.361Z,24.40
2018-05-23T10:04:45.389Z,24.51
2018-05-23T10:05:45.417Z,24.38
2018-05-23T10:06:45.445Z,24.38
2018-05-23T10:07:45.472Z,24.32
2018-05-23T10:08:45.503Z,24.24
2018-05-23T10:09:45.529Z,24.20
2018-05-23T10:10:45.556Z,24.36
2018-05-23T10:11:45.582Z,24.32
2018-05-23T10:12:45.611Z,24.16
2018-05-23T10:13:45.639Z,24.33
2018-05-23T10:14:45.667Z,24.57
2018-05-23T10:15:45.694Z,24.70
2018-05-23T10:16:45.721Z,24.77
2018-05-23T10:17:45.750Z,24.80
2018-05-23T10:18:45.781Z,24.74
2018-05-23T10:19:45.806Z,24.73
2018-05-23T10:20:45.839Z,24.96
2018-05-23T10:21:45.862Z,24.93
2018-05-23T10:22:46.015Z,24.73
2018-05-23T10:23:45.920Z,24.60
2018-05-23T10:24:45.948Z,24.68
2018-05-23T10:25:45.973Z,24.80
2018-05-23T10:26:46.001Z,24.86
2018-05-23T10:27:46.028Z,24.80
2018-05-23T10:28:46.059Z,24.69
2018-05-23T10:29:46.090Z,24.73
2018-05-23T10:30:46.113Z,24.69
2018-05-23T10:31:46.140Z,24.78
2018-05-23T10:32:46.169Z,24.50
2018-05-23T10:33:46.196Z,24.58
2018-05-23T10:34:46.225Z,24.69
2018-05-23T10:35:46.254Z,24.78
2018-05-23T10:36:46.281Z,24.86
2018-05-23T10:37:46.359Z,25.03
2018-05-23T10:38:46.341Z,25.03
2018-05-23T10:39:46.619Z,25.08
2018-05-23T10:40:46.393Z,25.18
2018-05-23T10:41:46.421Z,24.99
2018-05-23T10:42:46.452Z,24.93
2018-05-23T10:43:46.477Z,24.98
2018-05-23T10:44:46.505Z,24.78
2018-05-23T10:45:46.534Z,24.63
2018-05-23T10:46:46.562Z,24.74
2018-05-23T10:47:46.590Z,24.95
2018-05-23T10:48:46.622Z,25.01
2018-05-23T10:49:46.650Z,24.73
2018-05-23T10:50:46.674Z,24.45
2018-05-23T10:51:46.709Z,24.30
2018-05-23T10:52:46.730Z,24.35
2018-05-23T10:53:46.758Z,24.23
2018-05-23T10:54:46.787Z,24.36
2018-05-23T10:55:46.813Z,24.32
2018-05-23T10:56:46.842Z,24.50
2018-05-23T10:57:46.870Z,24.47
2018-05-23T10:58:46.898Z,24.65
2018-05-23T10:59:46.926Z,24.77
2018-05-23T11:00:46.955Z,24.92
2018-05-23T11:01:46.983Z,24.73
2018-05-23T11:02:47.096Z,24.70
2018-05-23T11:03:47.038Z,24.57
2018-05-23T11:04:47.067Z,24.33
2018-05-23T11:05:47.103Z,24.18
2018-05-23T11:06:47.123Z,24.21
2018-05-23T11:07:47.150Z,24.35
2018-05-23T11:08:47.179Z,24.20
2018-05-23T11:09:47.206Z,24.20
2018-05-23T11:10:47.234Z,24.16
2018-05-23T11:11:47.260Z,24.06
2018-05-23T11:12:47.289Z,24.29
2018-05-23T11:13:47.318Z,24.32
2018-05-23T11:14:47.407Z,24.35
2018-05-23T11:15:47.372Z,24.39
2018-05-23T11:16:47.400Z,24.35
2018-05-23T11:17:47.428Z,24.29
2018-05-23T11:18:47.457Z,24.42
2018-05-23T11:19:47.483Z,24.53
2018-05-23T11:20:47.563Z,24.57
2018-05-23T11:21:47.540Z,24.53
2018-05-23T11:22:47.568Z,24.55
2018-05-23T11:23:47.595Z,24.69
2018-05-23T11:24:47.622Z,24.69
2018-05-23T11:25:47.650Z,24.57
2018-05-23T11:26:47.886Z,24.30
2018-05-23T11:27:47.705Z,24.24
2018-05-23T11:28:47.735Z,24.32
2018-05-23T11:29:47.878Z,24.26
2018-05-23T11:30:47.795Z,24.32
2018-05-23T11:31:47.817Z,24.32
2018-05-23T11:32:47.895Z,24.42
2018-05-23T11:33:47.880Z,24.35
2018-05-23T11:34:47.902Z,24.65
2018-05-23T11:35:47.928Z,24.50
2018-05-23T11:36:47.957Z,24.43
2018-05-23T11:37:47.984Z,24.55
2018-05-23T11:38:48.014Z,24.70
2018-05-23T11:39:48.040Z,24.70
2018-05-23T11:40:48.067Z,24.76
2018-05-23T11:41:48.097Z,24.86
2018-05-23T11:42:48.124Z,24.70
2018-05-23T11:43:48.151Z,24.53
2018-05-23T11:44:48.179Z,24.51
2018-05-23T11:45:48.209Z,24.61
2018-05-23T11:46:48.235Z,24.57
2018-05-23T11:47:48.263Z,24.29
2018-05-23T11:48:48.291Z,24.33
2018-05-23T11:49:48.323Z,24.43
2018-05-23T11:50:48.347Z,24.42
2018-05-23T11:51:48.374Z,24.32
2018-05-23T11:52:48.402Z,24.43
2018-05-23T11:53:48.431Z,24.29
2018-05-23T11:54:48.461Z,24.30
2018-05-23T11:55:48.486Z,24.17
2018-05-23T11:56:48.564Z,24.21
2018-05-23T11:57:48.547Z,24.28
2018-05-23T11:58:48.570Z,24.42
2018-05-23T11:59:48.601Z,24.42
2018-05-23T12:00:48.631Z,24.38
2018-05-23T12:01:48.786Z,24.28
2018-05-23T12:02:48.681Z,24.28
2018-05-23T12:03:48.707Z,24.32
2018-05-23T12:04:48.738Z,24.35
2018-05-23T12:05:48.763Z,24.48
2018-05-23T12:06:48.792Z,24.54
2018-05-23T12:07:48.818Z,24.66
2018-05-23T12:08:48.845Z,24.57
2018-05-23T12:09:48.875Z,24.48
2018-05-23T12:10:48.902Z,24.53
2018-05-23T12:11:48.933Z,24.57
2018-05-23T12:12:48.958Z,24.40
2018-05-23T12:13:48.986Z,24.32
2018-05-23T12:14:49.019Z,24.38
2018-05-23T12:15:49.043Z,24.54
2018-05-23T12:16:49.069Z,24.61
2018-05-23T12:17:49.097Z,24.55
2018-05-23T12:18:49.125Z,24.42
2018-05-23T12:19:49.151Z,24.43
2018-05-23T12:20:49.179Z,24.39
2018-05-23T12:21:49.208Z,24.30
2018-05-23T12:22:49.281Z,24.17
2018-05-23T12:23:49.263Z,24.33
2018-05-23T12:24:49.294Z,24.35
2018-05-23T12:25:49.319Z,24.55
2018-05-23T12:26:49.347Z,24.57
2018-05-23T12:27:49.374Z,24.63
2018-05-23T12:28:49.402Z,24.77
2018-05-23T12:29:49.429Z,24.73
2018-05-23T12:30:49.462Z,24.66
2018-05-23T12:31:49.486Z,24.58
2018-05-23T12:32:49.514Z,24.65
2018-05-23T12:33:49.542Z,24.51
2018-05-23T12:34:49.569Z,24.24
2018-05-23T12:35:49.597Z,24.24
2018-05-23T12:36:49.630Z,24.30
2018-05-23T12:37:49.652Z,24.42
2018-05-23T12:38:49.758Z,24.45
2018-05-23T12:39:49.712Z,24.54
2018-05-23T12:40:49.744Z,24.36
2018-05-23T12:41:49.763Z,24.51
2018-05-23T12:42:49.792Z,24.43
2018-05-23T12:43:49.819Z,24.42
2018-05-23T12:44:49.847Z,24.40
2018-05-23T12:45:49.876Z,24.39
2018-05-23T12:46:49.904Z,24.35
2018-05-23T12:47:49.930Z,24.38
2018-05-23T12:48:49.957Z,24.33
2018-05-23T12:49:49.993Z,24.42
2018-05-23T12:50:50.014Z,24.39
2018-05-23T12:51:50.041Z,24.55
2018-05-23T12:52:50.075Z,24.35